sensor_id;sensor_type;location;lat;lon;timestamp;pressure;altitude;pressure_sealevel;temperature;humidity
60817;BME280;51921;51.518;-3.188;2024-03-25T00:01:47;100244.59;;;7.78;100.00
60817;BME280;51921;51.518;-3.188;2024-03-25T00:04:12;100239.77;;;7.20;100.00
60817;BME280;51921;51.518;-3.188;2024-03-25T00:06:38;100233.60;;;7.10;100.00
60817;BME280;51921;51.518;-3.188;2024-03-25T00:09:03;100230.47;;;6.66;100.00
60817;BME280;51921;51.518;-3.188;2024-03-25T00:11:29;100225.81;;;6.03;100.00
60817;BME280;51921;51.518;-3.188;2024-03-25T00:13:54;100216.34;;;7.25;100.00
60817;BME280;51921;51.518;-3.188;2024-03-25T00:16:20;100215.55;;;6.34;100.00
60817;BME280;51921;51.518;-3.188;2024-03-25T00:18:45;100211.07;;;5.40;100.00
60817;BME280;51921;51.518;-3.188;2024-03-25T00:21:11;100206.35;;;6.28;100.00
60817;BME280;51921;51.518;-3.188;2024-03-25T00:23:36;100205.75;;;5.48;100.00
60817;BME280;51921;51.518;-3.188;2024-03-25T00:26:02;100200.66;;;5.58;100.00
60817;BME280;51921;51.518;-3.188;2024-03-25T00:28:27;100194.62;;;4.79;100.00
60817;BME280;51921;51.518;-3.188;2024-03-25T00:30:53;100186.62;;;5.15;100.00
60817;BME280;51921;51.518;-3.188;2024-03-25T00:33:19;100185.96;;;6.36;100.00
60817;BME280;51921;51.518;-3.188;2024-03-25T00:35:44;100175.62;;;6.92;100.00
60817;BME280;51921;51.518;-3.188;2024-03-25T00:38:10;100172.23;;;5.43;100.00
60817;BME280;51921;51.518;-3.188;2024-03-25T00:40:35;100168.89;;;6.26;100.00
60817;BME280;51921;51.518;-3.188;2024-03-25T00:43:01;100155.14;;;6.85;100.00
60817;BME280;51921;51.518;-3.188;2024-03-25T00:45:26;100148.76;;;7.80;100.00
60817;BME280;51921;51.518;-3.188;2024-03-25T00:47:52;100142.56;;;7.25;100.00
60817;BME280;51921;51.518;-3.188;2024-03-25T00:50:17;100135.58;;;7.77;100.00
60817;BME280;51921;51.518;-3.188;2024-03-25T00:52:43;100126.73;;;7.25;100.00
60817;BME280;51921;51.518;-3.188;2024-03-25T00:55:08;100122.18;;;7.21;100.00
60817;BME280;51921;51.518;-3.188;2024-03-25T00:57:34;100114.94;;;8.32;100.00
60817;BME280;51921;51.518;-3.188;2024-03-25T00:59:59;100119.02;;;7.43;100.00
60817;BME280;51921;51.518;-3.188;2024-03-25T01:02:25;100117.90;;;6.49;100.00
60817;BME280;51921;51.518;-3.188;2024-03-25T01:04:50;100114.89;;;5.80;100.00
60817;BME280;51921;51.518;-3.188;2024-03-25T01:07:16;100113.62;;;5.22;100.00
60817;BME280;51921;51.518;-3.188;2024-03-25T01:09:41;100107.30;;;6.33;100.00
60817;BME280;51921;51.518;-3.188;2024-03-25T01:12:07;100099.58;;;7.96;100.00
60817;BME280;51921;51.518;-3.188;2024-03-25T01:14:32;100093.27;;;7.66;100.00
60817;BME280;51921;51.518;-3.188;2024-03-25T01:16:58;100089.80;;;7.81;100.00
60817;BME280;51921;51.518;-3.188;2024-03-25T01:19:23;100087.11;;;7.47;100.00
60817;BME280;51921;51.518;-3.188;2024-03-25T01:21:49;100087.10;;;7.77;100.00
60817;BME280;51921;51.518;-3.188;2024-03-25T01:24:14;100080.22;;;7.30;100.00
60817;BME280;51921;51.518;-3.188;2024-03-25T01:26:40;100079.26;;;7.35;100.00
60817;BME280;51921;51.518;-3.188;2024-03-25T01:29:05;100075.32;;;7.48;100.00
60817;BME280;51921;51.518;-3.188;2024-03-25T01:31:30;100068.74;;;7.40;100.00
60817;BME280;51921;51.518;-3.188;2024-03-25T01:33:56;100062.16;;;7.16;100.00
60817;BME280;51921;51.518;-3.188;2024-03-25T01:36:21;100057.20;;;6.49;100.00
60817;BME280;51921;51.518;-3.188;2024-03-25T01:38:47;100050.02;;;6.48;100.00
60817;BME280;51921;51.518;-3.188;2024-03-25T01:41:13;100045.00;;;6.62;100.00
60817;BME280;51921;51.518;-3.188;2024-03-25T01:43:38;100040.62;;;7.01;100.00
60817;BME280;51921;51.518;-3.188;2024-03-25T01:46:04;100033.75;;;5.98;100.00
60817;BME280;51921;51.518;-3.188;2024-03-25T01:48:29;100029.61;;;6.23;100.00
60817;BME280;51921;51.518;-3.188;2024-03-25T01:50:55;100025.00;;;5.57;100.00
60817;BME280;51921;51.518;-3.188;2024-03-25T01:53:20;100019.00;;;6.34;100.00
60817;BME280;51921;51.518;-3.188;2024-03-25T01:55:46;100009.65;;;5.87;100.00
60817;BME280;51921;51.518;-3.188;2024-03-25T01:58:11;100011.57;;;6.78;100.00
60817;BME280;51921;51.518;-3.188;2024-03-25T02:00:36;100003.43;;;6.40;100.00
60817;BME280;51921;51.518;-3.188;2024-03-25T02:03:02;99996.24;;;6.63;100.00
60817;BME280;51921;51.518;-3.188;2024-03-25T02:05:27;99988.60;;;6.70;100.00
60817;BME280;51921;51.518;-3.188;2024-03-25T02:07:53;99983.90;;;6.41;100.00
60817;BME280;51921;51.518;-3.188;2024-03-25T02:10:18;99975.47;;;7.22;100.00
60817;BME280;51921;51.518;-3.188;2024-03-25T02:12:45;99970.70;;;6.12;100.00
60817;BME280;51921;51.518;-3.188;2024-03-25T02:15:10;99962.02;;;5.91;100.00
60817;BME280;51921;51.518;-3.188;2024-03-25T02:17:34;99957.57;;;6.45;100.00
60817;BME280;51921;51.518;-3.188;2024-03-25T02:20:00;99952.87;;;5.88;100.00
60817;BME280;51921;51.518;-3.188;2024-03-25T02:22:25;99948.20;;;6.58;100.00
60817;BME280;51921;51.518;-3.188;2024-03-25T02:24:52;99941.84;;;6.29;100.00
60817;BME280;51921;51.518;-3.188;2024-03-25T02:27:17;99939.25;;;5.65;100.00
60817;BME280;51921;51.518;-3.188;2024-03-25T02:29:42;99935.39;;;5.04;100.00
60817;BME280;51921;51.518;-3.188;2024-03-25T02:32:08;99935.69;;;4.15;100.00
60817;BME280;51921;51.518;-3.188;2024-03-25T02:34:34;99929.16;;;4.24;100.00
60817;BME280;51921;51.518;-3.188;2024-03-25T02:36:59;99919.10;;;5.44;100.00
60817;BME280;51921;51.518;-3.188;2024-03-25T02:39:25;99912.76;;;5.55;100.00
60817;BME280;51921;51.518;-3.188;2024-03-25T02:41:50;99913.33;;;4.62;100.00
60817;BME280;51921;51.518;-3.188;2024-03-25T02:44:16;99909.42;;;5.26;100.00
60817;BME280;51921;51.518;-3.188;2024-03-25T02:46:41;99900.95;;;4.68;100.00
60817;BME280;51921;51.518;-3.188;2024-03-25T02:49:07;99902.84;;;4.77;100.00
60817;BME280;51921;51.518;-3.188;2024-03-25T02:51:32;99890.42;;;4.95;100.00
60817;BME280;51921;51.518;-3.188;2024-03-25T02:53:58;99884.66;;;5.73;100.00
60817;BME280;51921;51.518;-3.188;2024-03-25T02:56:23;99875.11;;;6.29;100.00
60817;BME280;51921;51.518;-3.188;2024-03-25T02:58:49;99868.23;;;5.53;100.00
60817;BME280;51921;51.518;-3.188;2024-03-25T03:01:16;99864.79;;;5.61;100.00
60817;BME280;51921;51.518;-3.188;2024-03-25T03:03:40;99856.78;;;4.77;100.00
60817;BME280;51921;51.518;-3.188;2024-03-25T03:06:05;99854.98;;;5.46;100.00
60817;BME280;51921;51.518;-3.188;2024-03-25T03:08:30;99852.96;;;4.28;100.00
60817;BME280;51921;51.518;-3.188;2024-03-25T03:10:56;99845.33;;;4.40;100.00
60817;BME280;51921;51.518;-3.188;2024-03-25T03:13:21;99838.57;;;4.70;100.00
60817;BME280;51921;51.518;-3.188;2024-03-25T03:15:47;99826.68;;;5.03;100.00
60817;BME280;51921;51.518;-3.188;2024-03-25T03:18:12;99826.19;;;5.67;100.00
60817;BME280;51921;51.518;-3.188;2024-03-25T03:20:38;99823.83;;;4.94;100.00
60817;BME280;51921;51.518;-3.188;2024-03-25T03:23:04;99818.65;;;4.03;100.00
60817;BME280;51921;51.518;-3.188;2024-03-25T03:25:29;99805.41;;;4.72;100.00
60817;BME280;51921;51.518;-3.188;2024-03-25T03:27:55;99811.58;;;4.43;100.00
60817;BME280;51921;51.518;-3.188;2024-03-25T03:30:20;99803.01;;;4.12;100.00
60817;BME280;51921;51.518;-3.188;2024-03-25T03:32:46;99797.06;;;4.34;100.00
60817;BME280;51921;51.518;-3.188;2024-03-25T03:35:11;99790.72;;;4.55;100.00
60817;BME280;51921;51.518;-3.188;2024-03-25T03:37:37;99785.80;;;4.00;100.00
60817;BME280;51921;51.518;-3.188;2024-03-25T03:40:03;99778.83;;;4.31;100.00
60817;BME280;51921;51.518;-3.188;2024-03-25T03:42:28;99772.16;;;4.75;100.00
60817;BME280;51921;51.518;-3.188;2024-03-25T03:44:53;99768.69;;;3.79;100.00
60817;BME280;51921;51.518;-3.188;2024-03-25T03:47:19;99764.06;;;4.87;100.00
60817;BME280;51921;51.518;-3.188;2024-03-25T03:49:45;99752.24;;;4.75;100.00
60817;BME280;51921;51.518;-3.188;2024-03-25T03:52:10;99747.86;;;5.85;100.00
60817;BME280;51921;51.518;-3.188;2024-03-25T03:54:35;99743.79;;;4.75;100.00
60817;BME280;51921;51.518;-3.188;2024-03-25T03:57:01;99739.05;;;4.48;100.00
60817;BME280;51921;51.518;-3.188;2024-03-25T03:59:27;99741.70;;;3.75;100.00
60817;BME280;51921;51.518;-3.188;2024-03-25T04:01:52;99729.33;;;5.22;100.00
60817;BME280;51921;51.518;-3.188;2024-03-25T04:04:18;99723.81;;;5.82;100.00
60817;BME280;51921;51.518;-3.188;2024-03-25T04:06:43;99724.44;;;5.12;100.00
60817;BME280;51921;51.518;-3.188;2024-03-25T04:09:09;99718.36;;;5.64;100.00
60817;BME280;51921;51.518;-3.188;2024-03-25T04:11:35;99712.41;;;5.65;100.00
60817;BME280;51921;51.518;-3.188;2024-03-25T04:14:00;99711.45;;;4.87;100.00
60817;BME280;51921;51.518;-3.188;2024-03-25T04:16:25;99707.87;;;4.65;100.00
60817;BME280;51921;51.518;-3.188;2024-03-25T04:18:51;99702.04;;;5.42;100.00
60817;BME280;51921;51.518;-3.188;2024-03-25T04:21:17;99700.36;;;4.03;100.00
60817;BME280;51921;51.518;-3.188;2024-03-25T04:23:42;99701.20;;;5.35;100.00
60817;BME280;51921;51.518;-3.188;2024-03-25T04:26:08;99695.59;;;4.94;100.00
60817;BME280;51921;51.518;-3.188;2024-03-25T04:28:33;99690.30;;;5.75;100.00
60817;BME280;51921;51.518;-3.188;2024-03-25T04:30:59;99684.12;;;5.13;100.00
60817;BME280;51921;51.518;-3.188;2024-03-25T04:33:24;99682.66;;;5.16;100.00
60817;BME280;51921;51.518;-3.188;2024-03-25T04:35:50;99676.01;;;5.34;100.00
60817;BME280;51921;51.518;-3.188;2024-03-25T04:38:16;99674.61;;;4.43;100.00
60817;BME280;51921;51.518;-3.188;2024-03-25T04:40:41;99665.72;;;4.65;100.00
60817;BME280;51921;51.518;-3.188;2024-03-25T04:43:06;99667.11;;;5.91;100.00
60817;BME280;51921;51.518;-3.188;2024-03-25T04:45:32;99664.62;;;4.42;100.00
60817;BME280;51921;51.518;-3.188;2024-03-25T04:47:57;99657.85;;;5.29;100.00
60817;BME280;51921;51.518;-3.188;2024-03-25T04:50:23;99657.36;;;4.88;100.00
60817;BME280;51921;51.518;-3.188;2024-03-25T04:52:48;99653.61;;;3.93;100.00
60817;BME280;51921;51.518;-3.188;2024-03-25T04:55:15;99656.07;;;4.45;100.00
60817;BME280;51921;51.518;-3.188;2024-03-25T04:57:39;99650.89;;;4.61;100.00
60817;BME280;51921;51.518;-3.188;2024-03-25T05:00:06;99650.90;;;4.82;100.00
60817;BME280;51921;51.518;-3.188;2024-03-25T05:02:30;99646.87;;;4.55;100.00
60817;BME280;51921;51.518;-3.188;2024-03-25T05:04:56;99645.17;;;4.95;100.00
60817;BME280;51921;51.518;-3.188;2024-03-25T05:07:22;99640.08;;;4.25;100.00
60817;BME280;51921;51.518;-3.188;2024-03-25T05:09:47;99634.00;;;5.21;100.00
60817;BME280;51921;51.518;-3.188;2024-03-25T05:12:13;99632.71;;;5.32;100.00
60817;BME280;51921;51.518;-3.188;2024-03-25T05:14:38;99627.50;;;5.02;100.00
60817;BME280;51921;51.518;-3.188;2024-03-25T05:17:04;99625.63;;;4.57;100.00
60817;BME280;51921;51.518;-3.188;2024-03-25T05:19:29;99616.81;;;4.85;100.00
60817;BME280;51921;51.518;-3.188;2024-03-25T05:21:55;99615.80;;;4.87;100.00
60817;BME280;51921;51.518;-3.188;2024-03-25T05:24:20;99609.10;;;5.15;100.00
60817;BME280;51921;51.518;-3.188;2024-03-25T05:26:46;99610.06;;;4.27;100.00
60817;BME280;51921;51.518;-3.188;2024-03-25T05:29:11;99605.61;;;3.78;100.00
60817;BME280;51921;51.518;-3.188;2024-03-25T05:31:37;99605.36;;;4.32;100.00
60817;BME280;51921;51.518;-3.188;2024-03-25T05:34:02;99600.73;;;4.72;100.00
60817;BME280;51921;51.518;-3.188;2024-03-25T05:36:28;99598.90;;;5.28;100.00
60817;BME280;51921;51.518;-3.188;2024-03-25T05:38:53;99597.84;;;4.70;100.00
60817;BME280;51921;51.518;-3.188;2024-03-25T05:41:19;99595.12;;;5.20;100.00
60817;BME280;51921;51.518;-3.188;2024-03-25T05:43:44;99594.51;;;5.01;100.00
60817;BME280;51921;51.518;-3.188;2024-03-25T05:46:09;99594.15;;;5.59;100.00
60817;BME280;51921;51.518;-3.188;2024-03-25T05:48:35;99593.48;;;5.11;100.00
60817;BME280;51921;51.518;-3.188;2024-03-25T05:51:01;99589.39;;;4.69;100.00
60817;BME280;51921;51.518;-3.188;2024-03-25T05:53:27;99587.10;;;5.42;100.00
60817;BME280;51921;51.518;-3.188;2024-03-25T05:55:51;99581.68;;;5.23;100.00
60817;BME280;51921;51.518;-3.188;2024-03-25T05:58:17;99578.95;;;5.30;100.00
60817;BME280;51921;51.518;-3.188;2024-03-25T06:00:43;99580.50;;;5.35;100.00
60817;BME280;51921;51.518;-3.188;2024-03-25T06:03:08;99580.97;;;5.56;100.00
60817;BME280;51921;51.518;-3.188;2024-03-25T06:05:33;99579.06;;;5.24;100.00
60817;BME280;51921;51.518;-3.188;2024-03-25T06:07:59;99578.06;;;5.65;100.00
60817;BME280;51921;51.518;-3.188;2024-03-25T06:10:24;99571.44;;;5.89;100.00
60817;BME280;51921;51.518;-3.188;2024-03-25T06:12:50;99569.98;;;5.26;100.00
60817;BME280;51921;51.518;-3.188;2024-03-25T06:15:16;99568.90;;;6.39;100.00
60817;BME280;51921;51.518;-3.188;2024-03-25T06:17:41;99562.35;;;6.25;100.00
60817;BME280;51921;51.518;-3.188;2024-03-25T06:20:07;99557.74;;;5.63;100.00
60817;BME280;51921;51.518;-3.188;2024-03-25T06:22:32;99565.25;;;5.54;100.00
60817;BME280;51921;51.518;-3.188;2024-03-25T06:24:58;99560.54;;;6.17;100.00
60817;BME280;51921;51.518;-3.188;2024-03-25T06:27:23;99557.71;;;5.42;100.00
60817;BME280;51921;51.518;-3.188;2024-03-25T06:29:49;99552.98;;;5.72;100.00
60817;BME280;51921;51.518;-3.188;2024-03-25T06:32:14;99557.40;;;6.62;100.00
60817;BME280;51921;51.518;-3.188;2024-03-25T06:34:40;99550.23;;;6.52;100.00
60817;BME280;51921;51.518;-3.188;2024-03-25T06:37:05;99548.04;;;6.53;100.00
60817;BME280;51921;51.518;-3.188;2024-03-25T06:39:31;99538.82;;;5.85;100.00
60817;BME280;51921;51.518;-3.188;2024-03-25T06:41:56;99541.90;;;6.50;100.00
60817;BME280;51921;51.518;-3.188;2024-03-25T06:44:22;99532.94;;;6.43;100.00
60817;BME280;51921;51.518;-3.188;2024-03-25T06:46:47;99530.64;;;6.60;100.00
60817;BME280;51921;51.518;-3.188;2024-03-25T06:49:13;99529.91;;;6.26;100.00
60817;BME280;51921;51.518;-3.188;2024-03-25T06:51:38;99531.18;;;5.94;100.00
60817;BME280;51921;51.518;-3.188;2024-03-25T06:54:04;99528.77;;;5.54;100.00
60817;BME280;51921;51.518;-3.188;2024-03-25T06:56:29;99525.69;;;6.03;100.00
60817;BME280;51921;51.518;-3.188;2024-03-25T06:58:55;99527.68;;;5.86;100.00
60817;BME280;51921;51.518;-3.188;2024-03-25T07:01:21;99523.99;;;6.31;100.00
60817;BME280;51921;51.518;-3.188;2024-03-25T07:03:46;99522.86;;;5.98;100.00
60817;BME280;51921;51.518;-3.188;2024-03-25T07:06:12;99522.20;;;5.75;100.00
60817;BME280;51921;51.518;-3.188;2024-03-25T07:08:37;99520.87;;;5.09;100.00
60817;BME280;51921;51.518;-3.188;2024-03-25T07:11:03;99520.43;;;5.48;100.00
60817;BME280;51921;51.518;-3.188;2024-03-25T07:13:28;99511.99;;;5.29;100.00
60817;BME280;51921;51.518;-3.188;2024-03-25T07:15:54;99514.86;;;5.48;100.00
60817;BME280;51921;51.518;-3.188;2024-03-25T07:18:19;99512.82;;;5.86;100.00
60817;BME280;51921;51.518;-3.188;2024-03-25T07:20:45;99508.40;;;4.84;100.00
60817;BME280;51921;51.518;-3.188;2024-03-25T07:23:11;99511.35;;;5.19;100.00
60817;BME280;51921;51.518;-3.188;2024-03-25T07:25:37;99511.61;;;5.63;100.00
60817;BME280;51921;51.518;-3.188;2024-03-25T07:28:02;99511.64;;;5.20;100.00
60817;BME280;51921;51.518;-3.188;2024-03-25T07:30:27;99510.53;;;5.24;100.00
60817;BME280;51921;51.518;-3.188;2024-03-25T07:32:52;99505.14;;;5.34;100.00
60817;BME280;51921;51.518;-3.188;2024-03-25T07:35:18;99505.44;;;4.79;100.00
60817;BME280;51921;51.518;-3.188;2024-03-25T07:37:44;99503.33;;;4.56;100.00
60817;BME280;51921;51.518;-3.188;2024-03-25T07:40:09;99499.64;;;4.55;100.00
60817;BME280;51921;51.518;-3.188;2024-03-25T07:42:35;99493.55;;;4.93;100.00
60817;BME280;51921;51.518;-3.188;2024-03-25T07:45:00;99492.80;;;5.29;100.00
60817;BME280;51921;51.518;-3.188;2024-03-25T07:47:26;99497.09;;;6.29;100.00
60817;BME280;51921;51.518;-3.188;2024-03-25T07:49:51;99495.21;;;5.15;100.00
60817;BME280;51921;51.518;-3.188;2024-03-25T07:52:17;99493.76;;;6.05;100.00
60817;BME280;51921;51.518;-3.188;2024-03-25T07:54:42;99482.38;;;6.15;100.00
60817;BME280;51921;51.518;-3.188;2024-03-25T07:57:08;99482.64;;;5.60;100.00
60817;BME280;51921;51.518;-3.188;2024-03-25T07:59:33;99483.26;;;5.51;100.00
60817;BME280;51921;51.518;-3.188;2024-03-25T08:01:59;99476.01;;;4.86;100.00
60817;BME280;51921;51.518;-3.188;2024-03-25T08:04:24;99473.50;;;4.92;100.00
60817;BME280;51921;51.518;-3.188;2024-03-25T08:06:49;99469.72;;;5.17;100.00
60817;BME280;51921;51.518;-3.188;2024-03-25T08:09:15;99460.52;;;5.26;100.00
60817;BME280;51921;51.518;-3.188;2024-03-25T08:11:41;99463.92;;;5.41;100.00
60817;BME280;51921;51.518;-3.188;2024-03-25T08:14:06;99466.36;;;4.59;100.00
60817;BME280;51921;51.518;-3.188;2024-03-25T08:16:31;99459.14;;;5.09;100.00
60817;BME280;51921;51.518;-3.188;2024-03-25T08:18:57;99460.82;;;4.85;100.00
60817;BME280;51921;51.518;-3.188;2024-03-25T08:21:23;99460.90;;;5.88;100.00
60817;BME280;51921;51.518;-3.188;2024-03-25T08:23:48;99457.69;;;6.38;100.00
60817;BME280;51921;51.518;-3.188;2024-03-25T08:26:13;99455.53;;;5.78;100.00
60817;BME280;51921;51.518;-3.188;2024-03-25T08:28:39;99456.58;;;4.60;100.00
60817;BME280;51921;51.518;-3.188;2024-03-25T08:31:04;99460.45;;;4.62;100.00
60817;BME280;51921;51.518;-3.188;2024-03-25T08:33:30;99461.09;;;5.79;100.00
60817;BME280;51921;51.518;-3.188;2024-03-25T08:35:55;99461.59;;;5.59;100.00
60817;BME280;51921;51.518;-3.188;2024-03-25T08:38:21;99458.01;;;5.48;100.00
60817;BME280;51921;51.518;-3.188;2024-03-25T08:40:46;99459.76;;;5.75;100.00
60817;BME280;51921;51.518;-3.188;2024-03-25T08:43:12;99458.85;;;6.01;100.00
60817;BME280;51921;51.518;-3.188;2024-03-25T08:45:37;99463.05;;;5.56;100.00
60817;BME280;51921;51.518;-3.188;2024-03-25T08:48:03;99458.85;;;5.20;100.00
60817;BME280;51921;51.518;-3.188;2024-03-25T08:50:28;99460.18;;;5.26;100.00
60817;BME280;51921;51.518;-3.188;2024-03-25T08:52:53;99456.97;;;5.02;100.00
60817;BME280;51921;51.518;-3.188;2024-03-25T08:55:19;99455.34;;;5.44;100.00
60817;BME280;51921;51.518;-3.188;2024-03-25T08:57:44;99460.60;;;5.95;100.00
60817;BME280;51921;51.518;-3.188;2024-03-25T09:00:11;99454.22;;;5.51;100.00
60817;BME280;51921;51.518;-3.188;2024-03-25T09:02:35;99445.61;;;5.13;100.00
60817;BME280;51921;51.518;-3.188;2024-03-25T09:05:01;99457.20;;;5.62;100.00
60817;BME280;51921;51.518;-3.188;2024-03-25T09:07:26;99454.90;;;5.18;100.00
60817;BME280;51921;51.518;-3.188;2024-03-25T09:09:51;99455.23;;;5.73;100.00
60817;BME280;51921;51.518;-3.188;2024-03-25T09:12:17;99459.81;;;6.13;100.00
60817;BME280;51921;51.518;-3.188;2024-03-25T09:14:42;99463.59;;;6.39;100.00
60817;BME280;51921;51.518;-3.188;2024-03-25T09:17:08;99453.64;;;5.63;100.00
60817;BME280;51921;51.518;-3.188;2024-03-25T09:19:33;99448.01;;;5.40;100.00
60817;BME280;51921;51.518;-3.188;2024-03-25T09:21:59;99449.67;;;5.75;100.00
60817;BME280;51921;51.518;-3.188;2024-03-25T09:24:24;99444.76;;;6.23;100.00
60817;BME280;51921;51.518;-3.188;2024-03-25T09:26:50;99446.12;;;5.29;100.00
60817;BME280;51921;51.518;-3.188;2024-03-25T09:29:15;99443.54;;;4.74;100.00
60817;BME280;51921;51.518;-3.188;2024-03-25T09:31:41;99441.55;;;5.66;100.00
60817;BME280;51921;51.518;-3.188;2024-03-25T09:34:06;99438.57;;;5.31;100.00
60817;BME280;51921;51.518;-3.188;2024-03-25T09:36:32;99432.63;;;5.33;100.00
60817;BME280;51921;51.518;-3.188;2024-03-25T09:38:57;99436.86;;;5.83;100.00
60817;BME280;51921;51.518;-3.188;2024-03-25T09:41:23;99431.40;;;6.00;100.00
60817;BME280;51921;51.518;-3.188;2024-03-25T09:43:53;99429.13;;;5.86;100.00
60817;BME280;51921;51.518;-3.188;2024-03-25T09:46:14;99436.69;;;5.30;100.00
60817;BME280;51921;51.518;-3.188;2024-03-25T09:48:40;99428.74;;;4.86;100.00
60817;BME280;51921;51.518;-3.188;2024-03-25T09:51:05;99422.60;;;5.06;100.00
60817;BME280;51921;51.518;-3.188;2024-03-25T09:53:30;99420.94;;;5.48;100.00
60817;BME280;51921;51.518;-3.188;2024-03-25T09:55:56;99416.07;;;5.00;100.00
60817;BME280;51921;51.518;-3.188;2024-03-25T09:58:22;99417.22;;;5.01;100.00
60817;BME280;51921;51.518;-3.188;2024-03-25T10:00:47;99408.09;;;5.40;100.00
60817;BME280;51921;51.518;-3.188;2024-03-25T10:03:13;99407.51;;;5.29;100.00
60817;BME280;51921;51.518;-3.188;2024-03-25T10:05:38;99405.51;;;4.79;100.00
60817;BME280;51921;51.518;-3.188;2024-03-25T10:08:04;99402.67;;;5.46;100.00
60817;BME280;51921;51.518;-3.188;2024-03-25T10:10:29;99401.43;;;5.76;100.00
60817;BME280;51921;51.518;-3.188;2024-03-25T10:12:55;99401.43;;;5.94;100.00
60817;BME280;51921;51.518;-3.188;2024-03-25T10:15:20;99397.84;;;6.03;100.00
60817;BME280;51921;51.518;-3.188;2024-03-25T10:17:45;99396.83;;;5.88;100.00
60817;BME280;51921;51.518;-3.188;2024-03-25T10:20:14;99393.11;;;5.81;100.00
60817;BME280;51921;51.518;-3.188;2024-03-25T10:22:41;99395.33;;;5.54;100.00
60817;BME280;51921;51.518;-3.188;2024-03-25T10:25:02;99389.28;;;5.20;100.00
60817;BME280;51921;51.518;-3.188;2024-03-25T10:27:27;99385.50;;;6.09;100.00
60817;BME280;51921;51.518;-3.188;2024-03-25T10:29:54;99384.79;;;5.94;100.00
60817;BME280;51921;51.518;-3.188;2024-03-25T10:32:18;99381.69;;;5.21;100.00
60817;BME280;51921;51.518;-3.188;2024-03-25T10:34:44;99381.36;;;6.27;100.00
60817;BME280;51921;51.518;-3.188;2024-03-25T10:37:10;99380.80;;;5.43;100.00
60817;BME280;51921;51.518;-3.188;2024-03-25T10:39:39;99376.29;;;5.87;100.00
60817;BME280;51921;51.518;-3.188;2024-03-25T10:42:02;99372.94;;;5.84;100.00
60817;BME280;51921;51.518;-3.188;2024-03-25T10:44:26;99356.36;;;4.81;100.00
60817;BME280;51921;51.518;-3.188;2024-03-25T10:46:55;99362.13;;;4.73;100.00
60817;BME280;51921;51.518;-3.188;2024-03-25T10:49:23;99359.97;;;5.60;100.00
60817;BME280;51921;51.518;-3.188;2024-03-25T10:51:43;99355.82;;;6.23;100.00
60817;BME280;51921;51.518;-3.188;2024-03-25T10:54:08;99343.29;;;5.85;100.00
60817;BME280;51921;51.518;-3.188;2024-03-25T10:56:33;99343.24;;;5.65;100.00
60817;BME280;51921;51.518;-3.188;2024-03-25T10:59:00;99350.44;;;5.11;100.00
60817;BME280;51921;51.518;-3.188;2024-03-25T11:01:24;99337.49;;;6.31;100.00
60817;BME280;51921;51.518;-3.188;2024-03-25T11:03:50;99332.68;;;5.97;100.00
60817;BME280;51921;51.518;-3.188;2024-03-25T11:06:15;99329.00;;;5.99;100.00
60817;BME280;51921;51.518;-3.188;2024-03-25T11:08:40;99327.48;;;6.33;100.00
60817;BME280;51921;51.518;-3.188;2024-03-25T11:11:06;99337.80;;;6.35;100.00
60817;BME280;51921;51.518;-3.188;2024-03-25T11:13:31;99320.45;;;5.75;100.00
60817;BME280;51921;51.518;-3.188;2024-03-25T11:15:57;99317.92;;;6.02;100.00
60817;BME280;51921;51.518;-3.188;2024-03-25T11:18:23;99307.21;;;6.83;100.00
60817;BME280;51921;51.518;-3.188;2024-03-25T11:20:48;99303.45;;;6.44;100.00
60817;BME280;51921;51.518;-3.188;2024-03-25T11:23:14;99308.39;;;6.59;100.00
60817;BME280;51921;51.518;-3.188;2024-03-25T11:25:40;99311.06;;;6.71;100.00
60817;BME280;51921;51.518;-3.188;2024-03-25T11:28:05;99311.78;;;6.34;100.00
60817;BME280;51921;51.518;-3.188;2024-03-25T11:30:31;99302.68;;;6.44;100.00
60817;BME280;51921;51.518;-3.188;2024-03-25T11:32:56;99302.36;;;6.17;100.00
60817;BME280;51921;51.518;-3.188;2024-03-25T11:35:21;99302.53;;;5.97;100.00
60817;BME280;51921;51.518;-3.188;2024-03-25T11:37:47;99307.06;;;5.13;100.00
60817;BME280;51921;51.518;-3.188;2024-03-25T11:40:13;99303.43;;;5.29;100.00
60817;BME280;51921;51.518;-3.188;2024-03-25T11:42:38;99299.35;;;6.06;100.00
60817;BME280;51921;51.518;-3.188;2024-03-25T11:45:04;99301.60;;;5.57;100.00
60817;BME280;51921;51.518;-3.188;2024-03-25T11:47:29;99289.04;;;5.69;100.00
60817;BME280;51921;51.518;-3.188;2024-03-25T11:49:54;99288.53;;;5.32;100.00
60817;BME280;51921;51.518;-3.188;2024-03-25T11:52:19;99279.66;;;5.42;100.00
60817;BME280;51921;51.518;-3.188;2024-03-25T11:54:45;99269.74;;;5.58;100.00
60817;BME280;51921;51.518;-3.188;2024-03-25T11:57:10;99263.48;;;5.11;100.00
60817;BME280;51921;51.518;-3.188;2024-03-25T11:59:36;99265.07;;;5.48;100.00
60817;BME280;51921;51.518;-3.188;2024-03-25T12:02:05;99266.79;;;5.32;100.00
60817;BME280;51921;51.518;-3.188;2024-03-25T12:04:27;99259.45;;;5.70;100.00
60817;BME280;51921;51.518;-3.188;2024-03-25T12:06:54;99259.91;;;5.46;100.00
60817;BME280;51921;51.518;-3.188;2024-03-25T12:09:18;99254.94;;;5.36;100.00
60817;BME280;51921;51.518;-3.188;2024-03-25T12:11:43;99254.02;;;5.75;100.00
60817;BME280;51921;51.518;-3.188;2024-03-25T12:14:09;99256.18;;;6.94;100.00
60817;BME280;51921;51.518;-3.188;2024-03-25T12:16:35;99247.66;;;6.65;100.00
60817;BME280;51921;51.518;-3.188;2024-03-25T12:19:00;99238.96;;;6.17;100.00
60817;BME280;51921;51.518;-3.188;2024-03-25T12:21:25;99235.55;;;6.53;100.00
60817;BME280;51921;51.518;-3.188;2024-03-25T12:23:51;99237.17;;;7.07;100.00
60817;BME280;51921;51.518;-3.188;2024-03-25T12:26:17;99236.50;;;6.46;100.00
60817;BME280;51921;51.518;-3.188;2024-03-25T12:28:42;99232.48;;;6.21;100.00
60817;BME280;51921;51.518;-3.188;2024-03-25T12:31:08;99228.53;;;6.94;100.00
60817;BME280;51921;51.518;-3.188;2024-03-25T12:33:40;99226.88;;;6.27;100.00
60817;BME280;51921;51.518;-3.188;2024-03-25T12:35:59;99226.26;;;7.22;100.00
60817;BME280;51921;51.518;-3.188;2024-03-25T12:38:25;99225.23;;;7.33;100.00